Howell, MI

8:31 PM EDT on April 29, 2017 (GMT -0400)
Livingston County

Weather History for KOZW - November, 2012

Change the Weather History Date:

Friday, November 30, 2012

  Actual Average Record
Temperature  
Mean Temperature 37 °F -  
Max Temperature 42 °F 42 °F 64 °F (1998)
Min Temperature 32 °F 29 °F 21 °F (2007)
Degree Days  
Heating Degree Days 28    
Moisture  
Dew Point 30 °F    
Average Humidity 73    
Maximum Humidity 86    
Minimum Humidity 62    
Precipitation  
Precipitation 0.00 in - - ()
Sea Level Pressure  
Sea Level Pressure 30.18 in    
Wind  
Wind Speed 5 mph (East)    
Max Wind Speed 13 mph    
Max Gust Speed 17 mph    
Visibility 6 miles    
Events      
Averages and records for this station are not official NWS values.
T = Trace of Precipitation, MM = Missing Value Source: NWS Daily Summary

Daily Weather History Graph

Daily Weather History Graph

Search for Another Location

Airport or City:

Trip Planner

Search our weather history database for the weather conditions in past years. The results will help you decide how hot, cold, wet, or windy it might be!

Date:

Astronomy

Nov. 30, 2012 Rise Set
Actual Time 7:45 AM EST 5:03 PM EST
Civil Twilight 7:14 AM EST 5:35 PM EST
Nautical Twilight 6:39 AM EST 6:10 PM EST
Astronomical Twilight 6:05 AM EST 6:44 PM EST
Moon 6:57 PM EST 9:16 AM EST
Length of Visible Light 10h 20m
Length of Day
9h 17m
Waning Gibbous, 96% of the Moon is Illuminated
Nov 30
Waning Gibbous
Dec 6
Last Quarter
Dec 13
New
Dec 20
First Quarter
Dec 28
Full

Hourly Weather History & Observations

Time (EST) Temp. Windchill Dew Point Humidity Pressure Visibility Wind Dir Wind Speed Gust Speed Precip Events Conditions
12:15 AM 32.9 °F - 24.8 °F 72% 30.20 in 7.0 mi Calm Calm - N/A   Scattered Clouds
12:34 AM 34.2 °F 31.2 °F 26.1 °F 72% 30.19 in 7.0 mi ESE 3.5 mph - N/A   Overcast
12:55 AM 34.0 °F 31.0 °F 26.6 °F 74% 30.19 in 7.0 mi SE 3.5 mph - N/A   Overcast
1:15 AM 34.9 °F 32.0 °F 27.1 °F 73% 30.19 in 7.0 mi ESE 3.5 mph - N/A   Overcast
1:34 AM 34.9 °F 32.0 °F 27.3 °F 74% 30.19 in 7.0 mi ESE 3.5 mph - N/A   Overcast
1:55 AM 34.9 °F 32.0 °F 27.3 °F 74% 30.18 in 7.0 mi ESE 3.5 mph - N/A   Overcast
2:14 AM 35.6 °F 32.8 °F 27.3 °F 72% 30.17 in 7.0 mi ESE 3.5 mph - N/A   Overcast
2:35 AM 35.8 °F 33.0 °F 27.3 °F 71% 30.18 in 7.0 mi SE 3.5 mph - N/A   Overcast
2:55 AM 36.1 °F - 27.5 °F 71% 30.18 in 7.0 mi Calm Calm - N/A   Overcast
3:14 AM 36.5 °F - 27.5 °F 70% 30.18 in 7.0 mi Calm Calm - N/A   Overcast
3:35 AM 36.7 °F - 27.5 °F 69% 30.18 in 7.0 mi Calm Calm - N/A   Overcast
3:54 AM 36.9 °F - 27.3 °F 68% 30.18 in 7.0 mi Calm Calm - N/A   Overcast
4:15 AM 36.9 °F 34.3 °F 27.3 °F 68% 30.17 in 10.0 mi East 3.5 mph - N/A   Overcast
4:35 AM 36.7 °F 34.1 °F 27.5 °F 69% 30.17 in 7.0 mi East 3.5 mph - N/A   Overcast
4:54 AM 36.5 °F 33.9 °F 27.5 °F 70% 30.16 in 7.0 mi SE 3.5 mph - N/A   Overcast
5:15 AM 35.8 °F 31.9 °F 27.5 °F 72% 30.16 in 7.0 mi ESE 4.6 mph - N/A   Overcast
5:35 AM 36.5 °F 33.9 °F 27.5 °F 70% 30.16 in 7.0 mi ESE 3.5 mph - N/A   Overcast
5:54 AM 36.9 °F 33.1 °F 27.5 °F 69% 30.16 in 7.0 mi ESE 4.6 mph - N/A   Overcast
6:15 AM 37.2 °F 33.6 °F 27.3 °F 67% 30.17 in 7.0 mi ESE 4.6 mph - N/A   Overcast
6:35 AM 37.4 °F 33.8 °F 27.1 °F 66% 30.17 in 7.0 mi East 4.6 mph - N/A   Overcast
6:54 AM 37.4 °F 33.8 °F 27.1 °F 66% 30.17 in 7.0 mi East 4.6 mph - N/A   Overcast
7:15 AM 37.0 °F 34.5 °F 27.1 °F 67% 30.18 in 7.0 mi NE 3.5 mph - N/A   Overcast
7:35 AM 36.9 °F 34.3 °F 27.1 °F 68% 30.18 in 7.0 mi NE 3.5 mph - N/A   Overcast
7:54 AM 36.9 °F 32.2 °F 27.3 °F 68% 30.19 in 7.0 mi NE 5.8 mph - N/A   Overcast
8:15 AM 36.9 °F 31.4 °F 27.5 °F 69% 30.18 in 7.0 mi East 6.9 mph - N/A   Overcast
8:35 AM 37.0 °F 31.6 °F 27.5 °F 68% 30.18 in 7.0 mi East 6.9 mph - N/A   Overcast
8:54 AM 37.4 °F 33.8 °F 28.0 °F 69% 30.18 in 7.0 mi ENE 4.6 mph - N/A   Overcast
9:15 AM 37.4 °F 32.8 °F 28.0 °F 69% 30.18 in 7.0 mi ENE 5.8 mph - N/A   Overcast
9:34 AM 37.8 °F 33.3 °F 28.0 °F 68% 30.19 in 7.0 mi ENE 5.8 mph - N/A   Overcast
9:55 AM 38.5 °F 34.1 °F 28.0 °F 66% 30.19 in 7.0 mi ENE 5.8 mph - N/A   Mostly Cloudy
10:15 AM 39.4 °F 35.2 °F 28.4 °F 65% 30.18 in 7.0 mi East 5.8 mph - N/A   Overcast
10:34 AM 40.1 °F 34.7 °F 28.4 °F 63% 30.18 in 7.0 mi East 8.1 mph - N/A   Overcast
10:55 AM 40.3 °F 34.4 °F 28.4 °F 63% 30.18 in 7.0 mi East 9.2 mph - N/A   Overcast
11:14 AM 41.0 °F 34.7 °F 28.9 °F 62% 30.17 in 7.0 mi ENE 10.4 mph - N/A   Overcast
11:35 AM 41.4 °F 34.7 °F 29.7 °F 63% 30.17 in 7.0 mi East 11.5 mph 17.3 mph N/A   Overcast
11:55 AM 41.4 °F 36.2 °F 30.6 °F 65% 30.16 in 5.0 mi East 8.1 mph - N/A   Haze
12:14 PM 41.4 °F 35.2 °F 30.9 °F 66% 30.15 in 7.0 mi East 10.4 mph - N/A   Overcast
12:35 PM 41.4 °F 35.2 °F 31.1 °F 67% 30.15 in 5.0 mi East 10.4 mph - N/A   Haze
12:55 PM 41.5 °F 35.4 °F 31.8 °F 68% 30.15 in 5.0 mi East 10.4 mph - N/A   Haze
1:14 PM 41.9 °F 35.9 °F 32.0 °F 68% 30.14 in 5.0 mi East 10.4 mph - N/A   Haze
1:35 PM 41.0 °F 34.7 °F 33.3 °F 74% 30.14 in 4.0 mi East 10.4 mph - N/A   Haze
1:55 PM 41.5 °F 37.1 °F 33.8 °F 74% 30.13 in 4.0 mi East 6.9 mph - N/A   Haze
2:14 PM 41.9 °F 36.9 °F 34.2 °F 74% 30.13 in 5.0 mi East 8.1 mph - N/A   Haze
2:35 PM 42.4 °F 36.1 °F 34.7 °F 74% 30.13 in 5.0 mi East 11.5 mph - N/A   Haze
2:54 PM 42.4 °F 37.5 °F 34.9 °F 75% 30.13 in 5.0 mi East 8.1 mph - N/A   Haze
3:15 PM 42.6 °F 37.2 °F 34.7 °F 74% 30.14 in 5.0 mi East 9.2 mph - N/A   Haze
3:35 PM 41.9 °F 35.9 °F 34.7 °F 76% 30.15 in 5.0 mi East 10.4 mph - N/A   Haze
3:54 PM 41.5 °F 36.4 °F 34.7 °F 77% 30.15 in 5.0 mi East 8.1 mph - N/A   Haze
4:15 PM 41.0 °F 35.2 °F 34.2 °F 77% 30.16 in 5.0 mi East 9.2 mph - N/A   Haze
4:35 PM 40.6 °F 34.3 °F 34.2 °F 78% 30.17 in 5.0 mi ENE 10.4 mph - N/A   Haze
4:55 PM 40.3 °F 33.9 °F 34.0 °F 78% 30.18 in 7.0 mi East 10.4 mph 16.1 mph N/A   Overcast
5:15 PM 40.1 °F 33.6 °F 33.8 °F 78% 30.18 in 7.0 mi East 10.4 mph - N/A   Overcast
5:34 PM 39.6 °F 34.7 °F 33.8 °F 80% 30.19 in 7.0 mi East 6.9 mph - N/A   Overcast
5:55 PM 39.0 °F 34.0 °F 33.1 °F 79% 30.19 in 7.0 mi East 6.9 mph - N/A   Overcast
6:15 PM 38.8 °F 31.6 °F 33.3 °F 80% 30.20 in 7.0 mi East 11.5 mph - N/A   Overcast
6:34 PM 38.5 °F 30.7 °F 32.9 °F 80% 30.20 in 5.0 mi East 12.7 mph - N/A   Haze
7:15 PM 38.3 °F 31.4 °F 32.9 °F 81% 30.22 in 5.0 mi East 10.4 mph - N/A   Haze
7:34 PM 38.3 °F 31.9 °F 32.9 °F 81% 30.21 in 7.0 mi East 9.2 mph - N/A   Overcast
7:55 PM 38.3 °F 32.5 °F 32.4 °F 79% 30.21 in 7.0 mi East 8.1 mph - N/A   Overcast
8:15 PM 38.3 °F 34.8 °F 32.2 °F 79% 30.23 in 7.0 mi East 4.6 mph - N/A   Overcast
8:35 PM 38.3 °F 33.9 °F 32.0 °F 78% 30.24 in 7.0 mi East 5.8 mph - N/A   Overcast
8:55 PM 37.8 °F 34.2 °F 32.0 °F 80% 30.24 in 7.0 mi East 4.6 mph - N/A   Overcast
9:15 PM 37.4 °F 31.4 °F 31.8 °F 80% 30.23 in 7.0 mi East 8.1 mph - N/A   Overcast
9:35 PM 37.0 °F 31.0 °F 31.6 °F 81% 30.22 in 7.0 mi East 8.1 mph - N/A   Overcast
10:14 PM 36.9 °F 30.7 °F 31.3 °F 80% 30.21 in 7.0 mi East 8.1 mph - N/A   Overcast
10:35 PM 35.6 °F 29.9 °F 30.6 °F 82% 30.21 in 7.0 mi East 6.9 mph - N/A   Mostly Cloudy
10:55 PM 34.7 °F 29.6 °F 30.2 °F 84% 30.20 in 7.0 mi East 5.8 mph - N/A   Scattered Clouds
11:14 PM 33.3 °F 28.9 °F 29.3 °F 85% 30.20 in 5.0 mi East 4.6 mph - N/A   Clear
11:35 PM 34.0 °F 28.8 °F 30.2 °F 86% 30.19 in 7.0 mi ESE 5.8 mph - N/A   Clear
11:55 PM 34.0 °F 28.8 °F 29.8 °F 85% 30.21 in 7.0 mi ESE 5.8 mph - N/A   Scattered Clouds